sensor_id;sensor_type;location;lat;lon;timestamp;P1;durP1;ratioP1;P2;durP2;ratioP2
28431;SDS011;15664;51.302;7.744;2022-07-01T00:01:56;12.85;;;5.63;;
28431;SDS011;15664;51.302;7.744;2022-07-01T00:04:21;11.40;;;4.63;;
28431;SDS011;15664;51.302;7.744;2022-07-01T00:07:10;10.48;;;4.95;;
28431;SDS011;15664;51.302;7.744;2022-07-01T00:09:37;8.37;;;3.87;;
28431;SDS011;15664;51.302;7.744;2022-07-01T00:12:02;8.43;;;3.47;;
28431;SDS011;15664;51.302;7.744;2022-07-01T00:14:28;8.50;;;3.78;;
28431;SDS011;15664;51.302;7.744;2022-07-01T00:16:53;7.63;;;3.27;;
28431;SDS011;15664;51.302;7.744;2022-07-01T00:19:19;7.87;;;3.00;;
28431;SDS011;15664;51.302;7.744;2022-07-01T00:21:44;6.97;;;3.10;;
28431;SDS011;15664;51.302;7.744;2022-07-01T00:24:10;7.97;;;3.25;;
28431;SDS011;15664;51.302;7.744;2022-07-01T00:26:35;9.53;;;3.23;;
28431;SDS011;15664;51.302;7.744;2022-07-01T00:29:01;9.07;;;3.97;;
28431;SDS011;15664;51.302;7.744;2022-07-01T00:31:26;7.70;;;2.63;;
28431;SDS011;15664;51.302;7.744;2022-07-01T00:33:51;6.50;;;2.67;;
28431;SDS011;15664;51.302;7.744;2022-07-01T00:36:17;7.50;;;2.73;;
28431;SDS011;15664;51.302;7.744;2022-07-01T00:38:42;8.00;;;2.83;;
28431;SDS011;15664;51.302;7.744;2022-07-01T00:41:07;7.57;;;2.90;;
28431;SDS011;15664;51.302;7.744;2022-07-01T00:43:36;6.93;;;2.60;;
28431;SDS011;15664;51.302;7.744;2022-07-01T00:46:03;8.20;;;2.97;;
28431;SDS011;15664;51.302;7.744;2022-07-01T00:48:29;9.55;;;3.15;;
28431;SDS011;15664;51.302;7.744;2022-07-01T00:50:57;7.95;;;2.85;;
28431;SDS011;15664;51.302;7.744;2022-07-01T00:53:23;8.37;;;2.87;;
28431;SDS011;15664;51.302;7.744;2022-07-01T00:55:48;6.80;;;2.80;;
28431;SDS011;15664;51.302;7.744;2022-07-01T00:58:14;7.43;;;2.93;;
28431;SDS011;15664;51.302;7.744;2022-07-01T01:00:40;6.77;;;2.70;;
28431;SDS011;15664;51.302;7.744;2022-07-01T01:03:05;9.50;;;3.10;;
28431;SDS011;15664;51.302;7.744;2022-07-01T01:05:33;7.72;;;2.85;;
28431;SDS011;15664;51.302;7.744;2022-07-01T01:07:59;7.78;;;2.90;;
28431;SDS011;15664;51.302;7.744;2022-07-01T01:10:24;8.27;;;2.90;;
28431;SDS011;15664;51.302;7.744;2022-07-01T01:12:51;7.90;;;2.75;;
28431;SDS011;15664;51.302;7.744;2022-07-01T01:15:19;8.80;;;3.57;;
28431;SDS011;15664;51.302;7.744;2022-07-01T01:17:45;8.77;;;3.08;;
28431;SDS011;15664;51.302;7.744;2022-07-01T01:20:18;9.23;;;3.05;;
28431;SDS011;15664;51.302;7.744;2022-07-01T01:22:44;7.20;;;2.53;;
28431;SDS011;15664;51.302;7.744;2022-07-01T01:25:11;7.20;;;2.40;;
28431;SDS011;15664;51.302;7.744;2022-07-01T01:27:37;9.13;;;2.80;;
28431;SDS011;15664;51.302;7.744;2022-07-01T01:30:06;8.48;;;3.00;;
28431;SDS011;15664;51.302;7.744;2022-07-01T01:32:33;7.40;;;3.20;;
28431;SDS011;15664;51.302;7.744;2022-07-01T01:34:58;9.40;;;3.03;;
28431;SDS011;15664;51.302;7.744;2022-07-01T01:37:24;8.60;;;3.10;;
28431;SDS011;15664;51.302;7.744;2022-07-01T01:39:49;9.13;;;2.83;;
28431;SDS011;15664;51.302;7.744;2022-07-01T01:42:14;7.77;;;3.17;;
28431;SDS011;15664;51.302;7.744;2022-07-01T01:44:40;8.50;;;3.27;;
28431;SDS011;15664;51.302;7.744;2022-07-01T01:47:05;9.50;;;3.20;;
28431;SDS011;15664;51.302;7.744;2022-07-01T01:49:31;10.10;;;3.63;;
28431;SDS011;15664;51.302;7.744;2022-07-01T01:51:56;11.13;;;4.10;;
28431;SDS011;15664;51.302;7.744;2022-07-01T01:54:24;9.30;;;3.70;;
28431;SDS011;15664;51.302;7.744;2022-07-01T01:56:50;10.70;;;3.85;;
28431;SDS011;15664;51.302;7.744;2022-07-01T01:59:15;10.60;;;3.93;;
28431;SDS011;15664;51.302;7.744;2022-07-01T02:01:41;12.07;;;4.10;;
28431;SDS011;15664;51.302;7.744;2022-07-01T02:04:06;10.57;;;4.40;;
28431;SDS011;15664;51.302;7.744;2022-07-01T02:06:31;12.40;;;4.63;;
28431;SDS011;15664;51.302;7.744;2022-07-01T02:08:57;12.47;;;5.00;;
28431;SDS011;15664;51.302;7.744;2022-07-01T02:11:22;14.63;;;4.70;;
28431;SDS011;15664;51.302;7.744;2022-07-01T02:13:47;13.03;;;5.73;;
28431;SDS011;15664;51.302;7.744;2022-07-01T02:16:12;14.03;;;5.43;;
28431;SDS011;15664;51.302;7.744;2022-07-01T02:18:38;13.87;;;4.97;;
28431;SDS011;15664;51.302;7.744;2022-07-01T02:21:03;13.70;;;5.25;;
28431;SDS011;15664;51.302;7.744;2022-07-01T02:23:29;16.30;;;6.20;;
28431;SDS011;15664;51.302;7.744;2022-07-01T02:25:54;20.33;;;6.07;;
28431;SDS011;15664;51.302;7.744;2022-07-01T02:28:20;13.50;;;5.65;;
28431;SDS011;15664;51.302;7.744;2022-07-01T02:30:45;11.93;;;5.30;;
28431;SDS011;15664;51.302;7.744;2022-07-01T02:33:10;12.57;;;4.70;;
28431;SDS011;15664;51.302;7.744;2022-07-01T02:35:38;10.13;;;4.30;;
28431;SDS011;15664;51.302;7.744;2022-07-01T02:38:05;10.77;;;4.57;;
28431;SDS011;15664;51.302;7.744;2022-07-01T02:40:31;10.27;;;4.07;;
28431;SDS011;15664;51.302;7.744;2022-07-01T02:42:59;10.50;;;4.93;;
28431;SDS011;15664;51.302;7.744;2022-07-01T02:45:24;10.68;;;4.18;;
28431;SDS011;15664;51.302;7.744;2022-07-01T02:47:50;10.07;;;4.13;;
28431;SDS011;15664;51.302;7.744;2022-07-01T02:50:17;9.70;;;4.40;;
28431;SDS011;15664;51.302;7.744;2022-07-01T02:52:43;9.05;;;3.97;;
28431;SDS011;15664;51.302;7.744;2022-07-01T02:55:09;9.37;;;4.30;;
28431;SDS011;15664;51.302;7.744;2022-07-01T02:57:35;9.50;;;4.17;;
28431;SDS011;15664;51.302;7.744;2022-07-01T03:00:02;13.95;;;4.90;;
28431;SDS011;15664;51.302;7.744;2022-07-01T03:02:30;12.23;;;4.55;;
28431;SDS011;15664;51.302;7.744;2022-07-01T03:04:56;12.30;;;5.45;;
28431;SDS011;15664;51.302;7.744;2022-07-01T03:07:22;14.00;;;5.37;;
28431;SDS011;15664;51.302;7.744;2022-07-01T03:09:47;11.60;;;5.60;;
28431;SDS011;15664;51.302;7.744;2022-07-01T03:12:13;11.43;;;4.90;;
28431;SDS011;15664;51.302;7.744;2022-07-01T03:14:57;11.68;;;5.03;;
28431;SDS011;15664;51.302;7.744;2022-07-01T03:17:24;12.02;;;5.50;;
28431;SDS011;15664;51.302;7.744;2022-07-01T03:19:50;12.65;;;5.30;;
28431;SDS011;15664;51.302;7.744;2022-07-01T03:22:16;14.40;;;5.63;;
28431;SDS011;15664;51.302;7.744;2022-07-01T03:24:42;12.15;;;5.10;;
28431;SDS011;15664;51.302;7.744;2022-07-01T03:27:07;12.67;;;5.43;;
28431;SDS011;15664;51.302;7.744;2022-07-01T03:29:34;12.98;;;6.20;;
28431;SDS011;15664;51.302;7.744;2022-07-01T03:32:00;12.43;;;5.38;;
28431;SDS011;15664;51.302;7.744;2022-07-01T03:34:25;11.80;;;5.50;;
28431;SDS011;15664;51.302;7.744;2022-07-01T03:36:50;12.20;;;5.67;;
28431;SDS011;15664;51.302;7.744;2022-07-01T03:39:16;13.80;;;5.93;;
28431;SDS011;15664;51.302;7.744;2022-07-01T03:41:41;17.10;;;6.33;;
28431;SDS011;15664;51.302;7.744;2022-07-01T03:44:06;13.27;;;6.13;;
28431;SDS011;15664;51.302;7.744;2022-07-01T03:46:32;15.07;;;6.23;;
28431;SDS011;15664;51.302;7.744;2022-07-01T03:48:57;16.27;;;6.63;;
28431;SDS011;15664;51.302;7.744;2022-07-01T03:51:23;17.27;;;7.63;;
28431;SDS011;15664;51.302;7.744;2022-07-01T03:53:48;16.63;;;7.47;;
28431;SDS011;15664;51.302;7.744;2022-07-01T03:56:32;16.63;;;7.05;;
28431;SDS011;15664;51.302;7.744;2022-07-01T03:58:58;17.80;;;7.60;;
28431;SDS011;15664;51.302;7.744;2022-07-01T04:01:23;16.83;;;7.67;;
28431;SDS011;15664;51.302;7.744;2022-07-01T04:03:48;18.30;;;8.10;;
28431;SDS011;15664;51.302;7.744;2022-07-01T04:06:14;18.83;;;7.88;;
28431;SDS011;15664;51.302;7.744;2022-07-01T04:08:40;16.07;;;7.07;;
28431;SDS011;15664;51.302;7.744;2022-07-01T04:11:05;17.27;;;7.63;;
28431;SDS011;15664;51.302;7.744;2022-07-01T04:13:33;17.63;;;7.70;;
28431;SDS011;15664;51.302;7.744;2022-07-01T04:15:59;19.33;;;7.70;;
28431;SDS011;15664;51.302;7.744;2022-07-01T04:18:25;17.02;;;7.22;;
28431;SDS011;15664;51.302;7.744;2022-07-01T04:20:51;16.90;;;7.50;;
28431;SDS011;15664;51.302;7.744;2022-07-01T04:23:35;15.50;;;6.70;;
28431;SDS011;15664;51.302;7.744;2022-07-01T04:26:01;15.13;;;7.13;;
28431;SDS011;15664;51.302;7.744;2022-07-01T04:28:27;15.57;;;7.00;;
28431;SDS011;15664;51.302;7.744;2022-07-01T04:30:52;15.77;;;6.53;;
28431;SDS011;15664;51.302;7.744;2022-07-01T04:33:17;15.95;;;7.68;;
28431;SDS011;15664;51.302;7.744;2022-07-01T04:35:43;15.03;;;6.60;;
28431;SDS011;15664;51.302;7.744;2022-07-01T04:38:08;11.73;;;5.67;;
28431;SDS011;15664;51.302;7.744;2022-07-01T04:40:34;12.90;;;5.70;;
28431;SDS011;15664;51.302;7.744;2022-07-01T04:42:59;14.07;;;5.80;;
28431;SDS011;15664;51.302;7.744;2022-07-01T04:45:24;13.17;;;5.43;;
28431;SDS011;15664;51.302;7.744;2022-07-01T04:47:49;14.35;;;5.60;;
28431;SDS011;15664;51.302;7.744;2022-07-01T04:50:15;12.83;;;5.63;;
28431;SDS011;15664;51.302;7.744;2022-07-01T04:52:40;10.50;;;5.00;;
28431;SDS011;15664;51.302;7.744;2022-07-01T04:55:05;12.23;;;5.33;;
28431;SDS011;15664;51.302;7.744;2022-07-01T04:57:32;11.23;;;5.03;;
28431;SDS011;15664;51.302;7.744;2022-07-01T04:59:57;13.40;;;5.70;;
28431;SDS011;15664;51.302;7.744;2022-07-01T05:02:23;13.83;;;5.57;;
28431;SDS011;15664;51.302;7.744;2022-07-01T05:04:48;12.33;;;5.03;;
28431;SDS011;15664;51.302;7.744;2022-07-01T05:07:13;11.63;;;5.50;;
28431;SDS011;15664;51.302;7.744;2022-07-01T05:09:54;12.50;;;5.38;;
28431;SDS011;15664;51.302;7.744;2022-07-01T05:12:20;15.70;;;6.03;;
28431;SDS011;15664;51.302;7.744;2022-07-01T05:14:47;9.30;;;3.87;;
28431;SDS011;15664;51.302;7.744;2022-07-01T05:17:12;17.48;;;5.93;;
28431;SDS011;15664;51.302;7.744;2022-07-01T05:19:38;13.30;;;5.67;;
28431;SDS011;15664;51.302;7.744;2022-07-01T05:22:22;16.60;;;6.22;;
28431;SDS011;15664;51.302;7.744;2022-07-01T05:24:47;14.90;;;5.90;;
28431;SDS011;15664;51.302;7.744;2022-07-01T05:27:12;13.97;;;5.73;;
28431;SDS011;15664;51.302;7.744;2022-07-01T05:29:37;15.70;;;6.43;;
28431;SDS011;15664;51.302;7.744;2022-07-01T05:32:03;14.23;;;6.00;;
28431;SDS011;15664;51.302;7.744;2022-07-01T05:34:28;13.75;;;6.25;;
28431;SDS011;15664;51.302;7.744;2022-07-01T05:36:54;12.47;;;5.43;;
28431;SDS011;15664;51.302;7.744;2022-07-01T05:39:19;11.90;;;5.77;;
28431;SDS011;15664;51.302;7.744;2022-07-01T05:41:44;13.50;;;6.13;;
28431;SDS011;15664;51.302;7.744;2022-07-01T05:44:10;13.20;;;6.23;;
28431;SDS011;15664;51.302;7.744;2022-07-01T05:46:36;14.25;;;5.57;;
28431;SDS011;15664;51.302;7.744;2022-07-01T05:49:01;16.60;;;7.43;;
28431;SDS011;15664;51.302;7.744;2022-07-01T05:51:26;15.87;;;6.53;;
28431;SDS011;15664;51.302;7.744;2022-07-01T05:53:52;15.27;;;6.57;;
28431;SDS011;15664;51.302;7.744;2022-07-01T05:56:17;17.47;;;7.30;;
28431;SDS011;15664;51.302;7.744;2022-07-01T05:58:42;14.07;;;7.07;;
28431;SDS011;15664;51.302;7.744;2022-07-01T06:01:09;16.73;;;7.40;;
28431;SDS011;15664;51.302;7.744;2022-07-01T06:03:34;16.87;;;6.90;;
28431;SDS011;15664;51.302;7.744;2022-07-01T06:06:00;16.95;;;7.10;;
28431;SDS011;15664;51.302;7.744;2022-07-01T06:08:25;17.53;;;6.50;;
28431;SDS011;15664;51.302;7.744;2022-07-01T06:10:50;15.20;;;6.07;;
28431;SDS011;15664;51.302;7.744;2022-07-01T06:13:16;14.17;;;6.50;;
28431;SDS011;15664;51.302;7.744;2022-07-01T06:15:41;13.60;;;6.50;;
28431;SDS011;15664;51.302;7.744;2022-07-01T06:18:06;15.40;;;6.33;;
28431;SDS011;15664;51.302;7.744;2022-07-01T06:20:32;15.13;;;6.50;;
28431;SDS011;15664;51.302;7.744;2022-07-01T06:22:57;14.60;;;6.00;;
28431;SDS011;15664;51.302;7.744;2022-07-01T06:25:23;14.85;;;6.47;;
28431;SDS011;15664;51.302;7.744;2022-07-01T06:27:48;12.20;;;6.10;;
28431;SDS011;15664;51.302;7.744;2022-07-01T06:30:14;17.20;;;6.77;;
28431;SDS011;15664;51.302;7.744;2022-07-01T06:32:39;16.00;;;6.30;;
28431;SDS011;15664;51.302;7.744;2022-07-01T06:35:05;15.40;;;6.13;;
28431;SDS011;15664;51.302;7.744;2022-07-01T06:37:32;12.30;;;5.93;;
28431;SDS011;15664;51.302;7.744;2022-07-01T06:39:59;12.68;;;6.28;;
28431;SDS011;15664;51.302;7.744;2022-07-01T06:42:25;12.47;;;5.60;;
28431;SDS011;15664;51.302;7.744;2022-07-01T06:44:50;12.43;;;5.72;;
28431;SDS011;15664;51.302;7.744;2022-07-01T06:47:16;14.40;;;6.78;;
28431;SDS011;15664;51.302;7.744;2022-07-01T06:49:41;12.47;;;5.93;;
28431;SDS011;15664;51.302;7.744;2022-07-01T06:52:07;17.97;;;6.60;;
28431;SDS011;15664;51.302;7.744;2022-07-01T06:54:32;14.03;;;5.90;;
28431;SDS011;15664;51.302;7.744;2022-07-01T06:56:57;12.57;;;6.10;;
28431;SDS011;15664;51.302;7.744;2022-07-01T06:59:23;15.27;;;6.47;;
28431;SDS011;15664;51.302;7.744;2022-07-01T07:01:48;14.77;;;6.97;;
28431;SDS011;15664;51.302;7.744;2022-07-01T07:04:14;11.63;;;6.22;;
28431;SDS011;15664;51.302;7.744;2022-07-01T07:06:40;11.98;;;6.00;;
28431;SDS011;15664;51.302;7.744;2022-07-01T07:09:05;12.30;;;6.17;;
28431;SDS011;15664;51.302;7.744;2022-07-01T07:11:31;13.00;;;6.27;;
28431;SDS011;15664;51.302;7.744;2022-07-01T07:13:56;14.97;;;5.70;;
28431;SDS011;15664;51.302;7.744;2022-07-01T07:16:21;10.57;;;5.40;;
28431;SDS011;15664;51.302;7.744;2022-07-01T07:18:47;12.83;;;6.10;;
28431;SDS011;15664;51.302;7.744;2022-07-01T07:21:13;11.90;;;5.63;;
28431;SDS011;15664;51.302;7.744;2022-07-01T07:23:39;14.03;;;6.27;;
28431;SDS011;15664;51.302;7.744;2022-07-01T07:26:04;11.37;;;6.10;;
28431;SDS011;15664;51.302;7.744;2022-07-01T07:28:29;11.30;;;6.38;;
28431;SDS011;15664;51.302;7.744;2022-07-01T07:30:55;11.13;;;5.40;;
28431;SDS011;15664;51.302;7.744;2022-07-01T07:33:20;15.13;;;5.90;;
28431;SDS011;15664;51.302;7.744;2022-07-01T07:35:45;13.43;;;6.03;;
28431;SDS011;15664;51.302;7.744;2022-07-01T07:38:11;9.63;;;5.27;;
28431;SDS011;15664;51.302;7.744;2022-07-01T07:40:36;11.67;;;5.63;;
28431;SDS011;15664;51.302;7.744;2022-07-01T07:43:02;17.27;;;6.25;;
28431;SDS011;15664;51.302;7.744;2022-07-01T07:45:28;11.10;;;4.85;;
28431;SDS011;15664;51.302;7.744;2022-07-01T07:47:54;10.43;;;5.40;;
28431;SDS011;15664;51.302;7.744;2022-07-01T07:50:20;11.77;;;5.03;;
28431;SDS011;15664;51.302;7.744;2022-07-01T07:52:46;10.93;;;5.10;;
28431;SDS011;15664;51.302;7.744;2022-07-01T07:55:12;12.00;;;5.60;;
28431;SDS011;15664;51.302;7.744;2022-07-01T07:57:38;12.67;;;5.60;;
28431;SDS011;15664;51.302;7.744;2022-07-01T08:00:05;13.73;;;6.05;;
28431;SDS011;15664;51.302;7.744;2022-07-01T08:02:37;10.63;;;5.20;;
28431;SDS011;15664;51.302;7.744;2022-07-01T08:05:03;11.67;;;5.17;;
28431;SDS011;15664;51.302;7.744;2022-07-01T08:07:28;7.65;;;4.18;;
28431;SDS011;15664;51.302;7.744;2022-07-01T08:09:54;8.87;;;4.40;;
28431;SDS011;15664;51.302;7.744;2022-07-01T08:12:20;11.32;;;5.30;;
28431;SDS011;15664;51.302;7.744;2022-07-01T08:14:47;9.27;;;4.85;;
28431;SDS011;15664;51.302;7.744;2022-07-01T08:17:12;8.73;;;5.27;;
28431;SDS011;15664;51.302;7.744;2022-07-01T08:19:38;9.80;;;4.33;;
28431;SDS011;15664;51.302;7.744;2022-07-01T08:22:03;10.40;;;5.03;;
28431;SDS011;15664;51.302;7.744;2022-07-01T08:24:29;11.93;;;5.20;;
28431;SDS011;15664;51.302;7.744;2022-07-01T08:26:54;10.17;;;4.87;;
28431;SDS011;15664;51.302;7.744;2022-07-01T08:29:19;9.23;;;4.60;;
28431;SDS011;15664;51.302;7.744;2022-07-01T08:31:45;10.63;;;5.20;;
28431;SDS011;15664;51.302;7.744;2022-07-01T08:34:10;11.70;;;5.03;;
28431;SDS011;15664;51.302;7.744;2022-07-01T08:36:35;12.07;;;5.03;;
28431;SDS011;15664;51.302;7.744;2022-07-01T08:39:01;9.60;;;4.93;;
28431;SDS011;15664;51.302;7.744;2022-07-01T08:41:27;10.38;;;5.35;;
28431;SDS011;15664;51.302;7.744;2022-07-01T08:43:53;8.57;;;5.07;;
28431;SDS011;15664;51.302;7.744;2022-07-01T08:46:18;9.63;;;5.40;;
28431;SDS011;15664;51.302;7.744;2022-07-01T08:48:44;10.70;;;5.73;;
28431;SDS011;15664;51.302;7.744;2022-07-01T08:51:10;8.90;;;5.47;;
28431;SDS011;15664;51.302;7.744;2022-07-01T08:53:35;11.40;;;5.43;;
28431;SDS011;15664;51.302;7.744;2022-07-01T08:56:02;11.43;;;6.07;;
28431;SDS011;15664;51.302;7.744;2022-07-01T08:58:49;12.40;;;6.07;;
28431;SDS011;15664;51.302;7.744;2022-07-01T09:01:16;12.50;;;6.00;;
28431;SDS011;15664;51.302;7.744;2022-07-01T09:03:46;14.25;;;6.93;;
28431;SDS011;15664;51.302;7.744;2022-07-01T09:06:13;12.15;;;6.35;;
28431;SDS011;15664;51.302;7.744;2022-07-01T09:08:44;11.90;;;6.55;;
28431;SDS011;15664;51.302;7.744;2022-07-01T09:11:14;10.77;;;6.37;;
28431;SDS011;15664;51.302;7.744;2022-07-01T09:13:41;10.40;;;6.32;;
28431;SDS011;15664;51.302;7.744;2022-07-01T09:16:14;11.93;;;6.00;;
28431;SDS011;15664;51.302;7.744;2022-07-01T09:18:54;11.35;;;5.72;;
28431;SDS011;15664;51.302;7.744;2022-07-01T09:21:27;11.55;;;6.03;;
28431;SDS011;15664;51.302;7.744;2022-07-01T09:23:56;10.13;;;5.73;;
28431;SDS011;15664;51.302;7.744;2022-07-01T09:26:23;12.00;;;6.53;;
28431;SDS011;15664;51.302;7.744;2022-07-01T09:28:52;16.25;;;7.65;;
28431;SDS011;15664;51.302;7.744;2022-07-01T09:31:19;9.98;;;6.07;;
28431;SDS011;15664;51.302;7.744;2022-07-01T09:33:44;13.30;;;6.60;;
28431;SDS011;15664;51.302;7.744;2022-07-01T09:36:14;15.67;;;7.30;;
28431;SDS011;15664;51.302;7.744;2022-07-01T09:38:45;12.93;;;6.30;;
28431;SDS011;15664;51.302;7.744;2022-07-01T09:41:12;12.13;;;6.07;;
28431;SDS011;15664;51.302;7.744;2022-07-01T09:43:38;12.75;;;6.60;;
28431;SDS011;15664;51.302;7.744;2022-07-01T09:46:06;14.80;;;6.43;;
28431;SDS011;15664;51.302;7.744;2022-07-01T09:50:58;12.70;;;6.63;;
28431;SDS011;15664;51.302;7.744;2022-07-01T09:53:24;12.27;;;6.22;;
28431;SDS011;15664;51.302;7.744;2022-07-01T09:55:49;11.33;;;6.30;;
28431;SDS011;15664;51.302;7.744;2022-07-01T09:58:15;11.00;;;6.40;;
28431;SDS011;15664;51.302;7.744;2022-07-01T10:00:40;10.40;;;4.97;;
28431;SDS011;15664;51.302;7.744;2022-07-01T10:03:06;13.63;;;6.50;;
28431;SDS011;15664;51.302;7.744;2022-07-01T10:08:29;10.15;;;6.40;;
28431;SDS011;15664;51.302;7.744;2022-07-01T10:14:00;10.70;;;5.93;;
28431;SDS011;15664;51.302;7.744;2022-07-01T10:16:28;15.00;;;5.63;;
28431;SDS011;15664;51.302;7.744;2022-07-01T10:18:55;10.05;;;5.80;;
28431;SDS011;15664;51.302;7.744;2022-07-01T10:21:27;9.40;;;5.53;;
28431;SDS011;15664;51.302;7.744;2022-07-01T10:24:10;10.25;;;5.05;;
28431;SDS011;15664;51.302;7.744;2022-07-01T10:26:37;7.22;;;4.63;;
28431;SDS011;15664;51.302;7.744;2022-07-01T10:29:02;9.13;;;4.83;;
28431;SDS011;15664;51.302;7.744;2022-07-01T10:31:35;6.40;;;4.40;;
28431;SDS011;15664;51.302;7.744;2022-07-01T10:34:02;7.07;;;4.85;;
28431;SDS011;15664;51.302;7.744;2022-07-01T10:36:28;8.77;;;4.63;;
28431;SDS011;15664;51.302;7.744;2022-07-01T10:41:34;8.80;;;4.38;;
28431;SDS011;15664;51.302;7.744;2022-07-01T10:44:02;8.50;;;4.67;;
28431;SDS011;15664;51.302;7.744;2022-07-01T10:46:43;7.22;;;4.40;;
28431;SDS011;15664;51.302;7.744;2022-07-01T10:49:12;6.97;;;4.07;;
28431;SDS011;15664;51.302;7.744;2022-07-01T10:51:45;7.93;;;3.80;;
28431;SDS011;15664;51.302;7.744;2022-07-01T10:55:00;7.22;;;4.28;;
28431;SDS011;15664;51.302;7.744;2022-07-01T10:59:48;6.90;;;3.75;;
28431;SDS011;15664;51.302;7.744;2022-07-01T11:02:15;6.75;;;3.58;;
28431;SDS011;15664;51.302;7.744;2022-07-01T11:04:42;6.18;;;3.10;;
28431;SDS011;15664;51.302;7.744;2022-07-01T11:07:08;7.73;;;3.77;;
28431;SDS011;15664;51.302;7.744;2022-07-01T11:09:34;6.55;;;3.47;;
28431;SDS011;15664;51.302;7.744;2022-07-01T11:11:59;6.50;;;3.47;;
28431;SDS011;15664;51.302;7.744;2022-07-01T11:14:25;6.30;;;2.90;;
28431;SDS011;15664;51.302;7.744;2022-07-01T11:16:51;6.15;;;2.90;;
28431;SDS011;15664;51.302;7.744;2022-07-01T11:19:19;9.30;;;3.50;;
28431;SDS011;15664;51.302;7.744;2022-07-01T11:21:51;7.90;;;3.60;;
28431;SDS011;15664;51.302;7.744;2022-07-01T11:24:18;8.60;;;3.00;;
28431;SDS011;15664;51.302;7.744;2022-07-01T11:26:43;6.82;;;3.08;;
28431;SDS011;15664;51.302;7.744;2022-07-01T11:29:09;7.53;;;3.20;;
28431;SDS011;15664;51.302;7.744;2022-07-01T11:31:35;6.28;;;3.17;;
28431;SDS011;15664;51.302;7.744;2022-07-01T11:34:01;6.97;;;3.40;;
28431;SDS011;15664;51.302;7.744;2022-07-01T11:36:27;6.07;;;3.58;;
28431;SDS011;15664;51.302;7.744;2022-07-01T11:39:11;7.73;;;4.10;;
28431;SDS011;15664;51.302;7.744;2022-07-01T11:42:07;7.85;;;4.10;;
28431;SDS011;15664;51.302;7.744;2022-07-01T11:44:35;9.10;;;4.82;;
28431;SDS011;15664;51.302;7.744;2022-07-01T11:47:05;7.55;;;3.90;;
28431;SDS011;15664;51.302;7.744;2022-07-01T11:49:31;6.88;;;3.85;;
28431;SDS011;15664;51.302;7.744;2022-07-01T11:52:01;6.70;;;3.80;;
28431;SDS011;15664;51.302;7.744;2022-07-01T11:54:33;6.78;;;3.38;;
28431;SDS011;15664;51.302;7.744;2022-07-01T11:57:12;7.32;;;3.60;;
28431;SDS011;15664;51.302;7.744;2022-07-01T11:59:39;9.00;;;4.55;;
28431;SDS011;15664;51.302;7.744;2022-07-01T12:02:06;6.97;;;3.27;;
28431;SDS011;15664;51.302;7.744;2022-07-01T12:04:33;5.88;;;2.80;;
28431;SDS011;15664;51.302;7.744;2022-07-01T12:06:59;5.63;;;3.10;;
28431;SDS011;15664;51.302;7.744;2022-07-01T12:09:24;5.50;;;2.90;;
28431;SDS011;15664;51.302;7.744;2022-07-01T12:11:50;8.07;;;2.90;;
28431;SDS011;15664;51.302;7.744;2022-07-01T12:16:54;6.03;;;2.80;;
28431;SDS011;15664;51.302;7.744;2022-07-01T12:22:08;6.45;;;2.90;;
28431;SDS011;15664;51.302;7.744;2022-07-01T12:24:35;6.75;;;2.75;;
28431;SDS011;15664;51.302;7.744;2022-07-01T12:29:52;6.65;;;3.17;;
28431;SDS011;15664;51.302;7.744;2022-07-01T12:32:23;6.32;;;2.83;;
28431;SDS011;15664;51.302;7.744;2022-07-01T12:35:00;7.00;;;2.75;;
28431;SDS011;15664;51.302;7.744;2022-07-01T12:37:44;4.68;;;2.35;;
28431;SDS011;15664;51.302;7.744;2022-07-01T12:40:23;5.67;;;2.10;;
28431;SDS011;15664;51.302;7.744;2022-07-01T12:42:50;4.25;;;2.30;;
28431;SDS011;15664;51.302;7.744;2022-07-01T12:45:17;5.82;;;2.17;;
28431;SDS011;15664;51.302;7.744;2022-07-01T12:47:48;5.07;;;2.28;;
28431;SDS011;15664;51.302;7.744;2022-07-01T12:50:22;5.00;;;2.00;;
28431;SDS011;15664;51.302;7.744;2022-07-01T12:53:23;5.00;;;2.35;;
28431;SDS011;15664;51.302;7.744;2022-07-01T12:55:48;4.15;;;2.17;;
28431;SDS011;15664;51.302;7.744;2022-07-01T12:58:23;5.55;;;2.33;;
28431;SDS011;15664;51.302;7.744;2022-07-01T13:00:53;5.13;;;2.28;;
28431;SDS011;15664;51.302;7.744;2022-07-01T13:03:21;3.33;;;1.80;;
28431;SDS011;15664;51.302;7.744;2022-07-01T13:05:48;4.40;;;1.83;;
28431;SDS011;15664;51.302;7.744;2022-07-01T13:08:14;5.68;;;2.00;;
28431;SDS011;15664;51.302;7.744;2022-07-01T13:10:40;4.72;;;2.10;;
28431;SDS011;15664;51.302;7.744;2022-07-01T13:13:06;11.85;;;2.00;;
28431;SDS011;15664;51.302;7.744;2022-07-01T13:15:32;4.82;;;1.80;;
28431;SDS011;15664;51.302;7.744;2022-07-01T13:17:57;4.97;;;2.10;;
28431;SDS011;15664;51.302;7.744;2022-07-01T13:20:23;4.03;;;1.85;;
28431;SDS011;15664;51.302;7.744;2022-07-01T13:22:48;4.57;;;2.17;;
28431;SDS011;15664;51.302;7.744;2022-07-01T13:25:14;3.53;;;1.83;;
28431;SDS011;15664;51.302;7.744;2022-07-01T13:27:40;3.67;;;1.90;;
28431;SDS011;15664;51.302;7.744;2022-07-01T13:30:06;4.57;;;1.92;;
28431;SDS011;15664;51.302;7.744;2022-07-01T13:32:33;5.00;;;1.95;;
28431;SDS011;15664;51.302;7.744;2022-07-01T13:34:59;5.40;;;2.30;;
28431;SDS011;15664;51.302;7.744;2022-07-01T13:37:25;3.55;;;1.80;;
28431;SDS011;15664;51.302;7.744;2022-07-01T13:39:50;2.83;;;1.80;;
28431;SDS011;15664;51.302;7.744;2022-07-01T13:42:16;3.33;;;1.70;;
28431;SDS011;15664;51.302;7.744;2022-07-01T13:44:41;4.27;;;2.00;;
28431;SDS011;15664;51.302;7.744;2022-07-01T13:47:07;3.10;;;1.50;;
28431;SDS011;15664;51.302;7.744;2022-07-01T13:49:37;3.47;;;1.57;;
28431;SDS011;15664;51.302;7.744;2022-07-01T13:52:03;4.80;;;1.77;;
28431;SDS011;15664;51.302;7.744;2022-07-01T13:54:28;3.38;;;1.77;;
28431;SDS011;15664;51.302;7.744;2022-07-01T13:56:54;3.03;;;1.60;;
28431;SDS011;15664;51.302;7.744;2022-07-01T13:59:19;2.70;;;1.63;;
28431;SDS011;15664;51.302;7.744;2022-07-01T14:01:44;3.50;;;1.83;;
28431;SDS011;15664;51.302;7.744;2022-07-01T14:04:10;2.47;;;1.50;;
28431;SDS011;15664;51.302;7.744;2022-07-01T14:06:36;2.60;;;1.67;;
28431;SDS011;15664;51.302;7.744;2022-07-01T14:09:01;3.17;;;1.70;;
28431;SDS011;15664;51.302;7.744;2022-07-01T14:11:27;3.90;;;1.60;;
28431;SDS011;15664;51.302;7.744;2022-07-01T14:13:53;5.97;;;1.90;;
28431;SDS011;15664;51.302;7.744;2022-07-01T14:16:18;5.53;;;1.90;;
28431;SDS011;15664;51.302;7.744;2022-07-01T14:18:43;5.07;;;2.17;;
28431;SDS011;15664;51.302;7.744;2022-07-01T14:21:09;4.75;;;1.92;;
28431;SDS011;15664;51.302;7.744;2022-07-01T14:23:35;5.13;;;2.00;;
28431;SDS011;15664;51.302;7.744;2022-07-01T14:26:00;9.43;;;3.38;;
28431;SDS011;15664;51.302;7.744;2022-07-01T14:28:26;3.70;;;1.70;;
28431;SDS011;15664;51.302;7.744;2022-07-01T14:30:51;4.30;;;1.73;;
28431;SDS011;15664;51.302;7.744;2022-07-01T14:33:19;4.15;;;1.50;;
28431;SDS011;15664;51.302;7.744;2022-07-01T14:35:45;3.60;;;1.70;;
28431;SDS011;15664;51.302;7.744;2022-07-01T14:38:11;2.80;;;1.60;;
28431;SDS011;15664;51.302;7.744;2022-07-01T14:40:39;2.20;;;1.20;;
28431;SDS011;15664;51.302;7.744;2022-07-01T14:43:04;4.30;;;1.38;;
28431;SDS011;15664;51.302;7.744;2022-07-01T14:45:30;2.90;;;1.40;;
28431;SDS011;15664;51.302;7.744;2022-07-01T14:47:55;4.45;;;1.70;;
28431;SDS011;15664;51.302;7.744;2022-07-01T14:50:21;4.53;;;1.67;;
28431;SDS011;15664;51.302;7.744;2022-07-01T14:52:47;3.87;;;1.63;;
28431;SDS011;15664;51.302;7.744;2022-07-01T14:55:13;5.50;;;2.00;;
28431;SDS011;15664;51.302;7.744;2022-07-01T14:57:38;3.40;;;1.50;;
28431;SDS011;15664;51.302;7.744;2022-07-01T15:00:04;2.17;;;1.07;;
28431;SDS011;15664;51.302;7.744;2022-07-01T15:02:30;2.65;;;1.25;;